Hauptseite
Satellitenwetter 10-Tage PrognosenKlimaSeewetter Wirbelstürme Blitz FlughäfenFAQ Newsletter Über uns
Wetter : Europa Afrika Nordamerika Südamerika Asien Australien-Ozeanien Andere
Sprachen Kontakt

Newquay Cornwall, England

Newquay Cornwall Airport

Breite: 50-26N, Länge: 005-00W, Höhe: 119 m


METAR: EGHQ 311450Z 29009KT 9999 FEW030 15/09 Q1018
TAF: EGHQ 311405Z 3115/3121 29009KT 9999 FEW030

Zeit: 16:22 (15:22 UTC)

Beobachtung

Neuester Wetterbericht von vor 32 Minuten, um 14:50 UTC
Wind 9 kt aus West/Nordwest
Temperatur 15°C
Luftfeuchtigkeit 67%
Luftdruck 1018 hPa
Sichtweite 10 km oder mehr
Leicht bewölkt in der Höhe von 3000 ft

Maßeinheiten ändern

Prognose

Neuester Wetterbericht von vor 1 Stunde und 17 Minuten, um 14:05 UTC
Gültige Prognose vom 31 um 15 UTC bis 31 um 21 UTC
Wind 9 kt aus West/Nordwest
Sichtweite 10 km oder mehr
Leicht bewölkt in der Höhe von 3000 ft
Die Angaben auf diesen Webseiten unterliegen einer Erklärung über den Haftungsausschluss
Wetter : Europa Afrika Nordamerika Südamerika Asien Australien-Ozeanien Andere
Satellitenwetter 10-Tage PrognosenKlimaSeewetter Wirbelstürme Blitz FlughäfenFAQ Sprachen Kontakt Newsletter Über uns